createdAt,value
2018-01-26T00:02:12.846Z,4.77
2018-01-26T00:04:40.297Z,3.83
2018-01-26T00:07:07.742Z,4.60
2018-01-26T00:09:35.953Z,4.27
2018-01-26T00:12:03.398Z,5.13
2018-01-26T00:14:30.854Z,4.27
2018-01-26T00:16:58.297Z,3.97
2018-01-26T00:19:25.744Z,4.80
2018-01-26T00:21:53.179Z,4.30
2018-01-26T00:24:21.398Z,4.53
2018-01-26T00:26:48.838Z,3.63
2018-01-26T00:29:16.304Z,4.00
2018-01-26T00:31:43.755Z,5.80
2018-01-26T00:34:11.210Z,5.23
2018-01-26T00:36:38.643Z,4.00
2018-01-26T00:39:06.865Z,3.87
2018-01-26T00:41:34.299Z,4.43
2018-01-26T00:44:01.758Z,4.17
2018-01-26T00:46:29.198Z,4.33
2018-01-26T00:48:56.644Z,5.60
2018-01-26T00:51:24.855Z,4.10
2018-01-26T00:53:52.318Z,4.10
2018-01-26T00:56:19.978Z,4.33
2018-01-26T00:58:47.432Z,4.57
2018-01-26T01:01:14.863Z,4.80
2018-01-26T01:03:42.311Z,4.93
2018-01-26T01:06:10.521Z,4.07
2018-01-26T01:08:37.971Z,4.30
2018-01-26T01:11:05.417Z,4.60
2018-01-26T01:13:32.860Z,4.87
2018-01-26T01:16:00.302Z,4.20
2018-01-26T01:18:28.529Z,3.63
2018-01-26T01:20:55.971Z,4.47
2018-01-26T01:23:23.413Z,5.43
2018-01-26T01:25:50.851Z,4.07
2018-01-26T01:28:19.061Z,5.20
2018-01-26T01:30:46.493Z,5.13
2018-01-26T01:33:13.990Z,4.10
2018-01-26T01:35:41.392Z,4.20
2018-01-26T01:38:09.611Z,3.87
2018-01-26T01:40:37.059Z,3.73
2018-01-26T01:43:04.501Z,4.60
2018-01-26T01:45:31.945Z,3.50
2018-01-26T01:48:00.160Z,4.07
2018-01-26T01:50:27.600Z,3.27
2018-01-26T01:52:55.037Z,4.87
2018-01-26T01:55:22.498Z,4.40
2018-01-26T01:57:49.929Z,5.10
2018-01-26T02:00:18.142Z,4.60
2018-01-26T02:02:45.582Z,4.47
2018-01-26T02:05:13.790Z,4.10
2018-01-26T02:07:41.238Z,4.40
2018-01-26T02:10:08.695Z,4.30
2018-01-26T02:12:36.149Z,4.47
2018-01-26T02:15:03.595Z,5.70
2018-01-26T02:17:31.038Z,3.93
2018-01-26T02:19:58.496Z,4.67
2018-01-26T02:22:25.938Z,5.00
2018-01-26T02:25:11.801Z,4.70
2018-01-26T02:27:39.238Z,5.30
2018-01-26T02:30:06.685Z,4.40
2018-01-26T02:32:34.129Z,4.57
2018-01-26T02:35:01.583Z,4.60
2018-01-26T02:37:29.017Z,4.83
2018-01-26T02:39:56.477Z,4.77
2018-01-26T02:42:23.922Z,6.93
2018-01-26T02:44:52.135Z,5.40
2018-01-26T02:47:19.586Z,5.87
2018-01-26T02:49:47.041Z,6.30
2018-01-26T02:52:14.483Z,5.83
2018-01-26T02:54:41.930Z,6.30
2018-01-26T02:57:10.145Z,6.37
2018-01-26T02:59:37.588Z,6.93
2018-01-26T03:02:05.032Z,7.40
2018-01-26T03:04:32.475Z,5.63
2018-01-26T03:06:59.912Z,7.03
2018-01-26T03:09:28.137Z,7.57
2018-01-26T03:11:55.575Z,7.43
2018-01-26T03:14:23.043Z,8.23
2018-01-26T03:16:50.500Z,8.13
2018-01-26T03:19:17.954Z,7.73
2018-01-26T03:21:45.396Z,7.83
2018-01-26T03:24:12.837Z,7.60
2018-01-26T03:26:41.058Z,7.63
2018-01-26T03:29:08.501Z,6.60
2018-01-26T03:31:35.943Z,6.83
2018-01-26T03:34:03.388Z,6.97
2018-01-26T03:36:31.603Z,7.67
2018-01-26T03:38:59.049Z,6.20
2018-01-26T03:41:26.501Z,7.03
2018-01-26T03:43:53.949Z,6.43
2018-01-26T03:46:21.383Z,5.97
2018-01-26T03:48:49.598Z,6.40
2018-01-26T03:51:17.036Z,7.10
2018-01-26T03:53:44.485Z,7.40
2018-01-26T03:56:11.932Z,5.77
2018-01-26T03:58:39.377Z,6.00
2018-01-26T04:01:07.593Z,4.73
2018-01-26T04:03:35.033Z,4.37
2018-01-26T04:06:02.493Z,3.77
2018-01-26T04:08:29.932Z,4.80
2018-01-26T04:10:57.384Z,4.23
2018-01-26T04:13:25.589Z,4.30
2018-01-26T04:15:53.046Z,3.93
2018-01-26T04:18:20.494Z,5.20
2018-01-26T04:20:47.947Z,3.40
2018-01-26T04:23:15.376Z,4.10
2018-01-26T04:25:43.594Z,3.67
2018-01-26T04:28:11.027Z,5.70
2018-01-26T04:30:38.482Z,4.37
2018-01-26T04:33:05.917Z,5.00
2018-01-26T04:35:34.128Z,3.67
2018-01-26T04:38:01.574Z,4.73
2018-01-26T04:40:29.025Z,4.67
2018-01-26T04:42:56.456Z,5.13
2018-01-26T04:45:24.681Z,5.37
2018-01-26T04:47:52.115Z,4.10
2018-01-26T04:50:19.586Z,5.30
2018-01-26T04:52:47.021Z,4.73
2018-01-26T04:55:15.231Z,4.73
2018-01-26T04:57:42.672Z,5.67
2018-01-26T05:00:10.122Z,5.30
2018-01-26T05:02:37.565Z,5.67
2018-01-26T05:05:05.777Z,5.10
2018-01-26T05:07:33.221Z,5.73
2018-01-26T05:10:00.680Z,5.70
2018-01-26T05:12:29.497Z,4.90
2018-01-26T05:14:56.946Z,5.83
2018-01-26T05:17:24.393Z,5.17
2018-01-26T05:19:51.850Z,6.07
2018-01-26T05:22:19.290Z,5.20
2018-01-26T05:24:46.733Z,5.30
2018-01-26T05:27:14.186Z,5.60
2018-01-26T05:29:41.612Z,4.83
2018-01-26T05:32:09.828Z,5.00
2018-01-26T05:34:37.274Z,4.67
2018-01-26T05:37:04.732Z,4.80
2018-01-26T05:39:32.160Z,4.40
2018-01-26T05:42:00.381Z,4.07
2018-01-26T05:44:27.826Z,4.60
2018-01-26T05:46:55.264Z,4.73
2018-01-26T05:49:23.469Z,5.30
2018-01-26T05:51:50.943Z,4.27
2018-01-26T05:54:18.398Z,4.53
2018-01-26T05:56:45.833Z,4.63
2018-01-26T05:59:13.279Z,3.63
2018-01-26T06:01:40.721Z,4.60
2018-01-26T06:04:08.941Z,4.90
2018-01-26T06:06:36.381Z,5.03
2018-01-26T06:09:03.832Z,5.40
2018-01-26T06:11:31.279Z,4.83
2018-01-26T06:13:58.734Z,5.30
2018-01-26T06:16:26.168Z,5.43
2018-01-26T06:18:54.380Z,5.30
2018-01-26T06:21:21.819Z,5.33
2018-01-26T06:23:49.274Z,6.57
2018-01-26T06:26:16.716Z,6.67
2018-01-26T06:28:44.927Z,7.60
2018-01-26T06:31:12.372Z,7.50
2018-01-26T06:33:39.841Z,7.83
2018-01-26T06:36:07.286Z,7.83
2018-01-26T06:38:34.725Z,6.80
2018-01-26T06:41:02.172Z,7.47
2018-01-26T06:43:30.383Z,7.97
2018-01-26T06:45:57.837Z,7.23
2018-01-26T06:48:25.271Z,7.47
2018-01-26T06:50:52.712Z,8.37
2018-01-26T06:53:20.922Z,8.57
2018-01-26T06:55:48.382Z,8.13
2018-01-26T06:58:15.820Z,7.90
2018-01-26T07:00:43.281Z,8.20
2018-01-26T07:03:10.716Z,7.77
2018-01-26T07:05:38.945Z,9.23
2018-01-26T07:08:06.385Z,7.80
2018-01-26T07:10:33.841Z,7.97
2018-01-26T07:13:01.290Z,7.83
2018-01-26T07:15:28.738Z,8.53
2018-01-26T07:17:56.181Z,7.90
2018-01-26T07:20:23.623Z,7.83
2018-01-26T07:22:51.833Z,6.70
2018-01-26T07:25:19.281Z,7.40
2018-01-26T07:27:46.721Z,7.33
2018-01-26T07:30:14.168Z,6.47
2018-01-26T07:32:42.374Z,6.50
2018-01-26T07:35:09.818Z,7.87
2018-01-26T07:37:37.266Z,6.90
2018-01-26T07:40:05.474Z,6.80
2018-01-26T07:42:32.912Z,7.00
2018-01-26T07:45:00.366Z,8.23
2018-01-26T07:47:27.817Z,6.70
2018-01-26T07:49:55.260Z,7.30
2018-01-26T07:52:23.493Z,6.13
2018-01-26T07:54:50.931Z,6.70
2018-01-26T07:57:18.378Z,4.30
2018-01-26T07:59:45.826Z,3.60
2018-01-26T08:02:13.271Z,4.20
2018-01-26T08:04:40.714Z,4.50
2018-01-26T08:07:08.930Z,4.17
2018-01-26T08:09:36.382Z,3.60
2018-01-26T08:12:03.843Z,3.63
2018-01-26T08:14:31.277Z,3.80
2018-01-26T08:16:58.714Z,3.23
2018-01-26T08:19:26.936Z,4.10
2018-01-26T08:21:54.383Z,3.07
2018-01-26T08:24:21.837Z,2.40
2018-01-26T08:26:49.286Z,2.57
2018-01-26T08:29:16.729Z,2.50
2018-01-26T08:31:44.168Z,2.10
2018-01-26T08:34:12.392Z,2.03
2018-01-26T08:36:39.836Z,1.50
2018-01-26T08:39:07.270Z,1.93
2018-01-26T08:41:34.722Z,1.40
2018-01-26T08:44:02.941Z,0.90
2018-01-26T08:46:30.384Z,1.27
2018-01-26T08:48:57.836Z,1.00
2018-01-26T08:51:25.287Z,1.33
2018-01-26T08:53:52.729Z,0.90
2018-01-26T08:56:20.176Z,0.80
2018-01-26T08:58:48.383Z,1.20
2018-01-26T09:01:15.833Z,1.10
2018-01-26T09:03:43.272Z,1.07
2018-01-26T09:06:10.733Z,0.90
2018-01-26T09:08:38.929Z,1.00
2018-01-26T09:11:06.395Z,0.80
2018-01-26T09:13:33.834Z,0.73
2018-01-26T09:16:01.291Z,0.90
2018-01-26T09:18:28.752Z,0.80
2018-01-26T09:20:56.205Z,0.90
2018-01-26T09:23:23.652Z,0.83
2018-01-26T09:25:51.125Z,0.70
2018-01-26T09:28:18.582Z,0.97
2018-01-26T09:30:46.020Z,0.70
2018-01-26T09:33:13.477Z,0.90
2018-01-26T09:35:41.686Z,0.80
2018-01-26T09:38:09.145Z,1.10
2018-01-26T09:40:37.360Z,0.90
2018-01-26T09:43:05.585Z,0.87
2018-01-26T09:45:33.036Z,0.93
2018-01-26T09:48:00.463Z,0.80
2018-01-26T09:50:27.908Z,1.20
2018-01-26T09:52:56.129Z,1.07
2018-01-26T09:55:23.579Z,0.80
2018-01-26T09:57:51.016Z,1.33
2018-01-26T10:00:18.471Z,1.30
2018-01-26T10:02:45.916Z,1.17
2018-01-26T10:05:13.393Z,1.17
2018-01-26T10:07:41.573Z,0.93
2018-01-26T10:10:09.025Z,0.83
2018-01-26T10:12:36.469Z,0.90
2018-01-26T10:15:03.926Z,1.10
2018-01-26T10:17:31.378Z,1.37
2018-01-26T10:19:58.882Z,0.80
2018-01-26T10:22:26.285Z,1.00
2018-01-26T10:24:53.738Z,1.10
2018-01-26T10:27:21.945Z,0.77
2018-01-26T10:29:49.393Z,0.90
2018-01-26T10:32:16.843Z,0.83
2018-01-26T10:34:44.314Z,1.17
2018-01-26T10:37:11.757Z,0.90
2018-01-26T10:39:39.203Z,0.90
2018-01-26T10:42:06.653Z,1.30
2018-01-26T10:44:34.098Z,1.50
2018-01-26T10:47:02.312Z,1.40
2018-01-26T10:49:29.752Z,1.13
2018-01-26T10:51:57.202Z,1.20
2018-01-26T10:54:24.646Z,1.50
2018-01-26T10:56:52.856Z,1.00
2018-01-26T10:59:20.296Z,1.10
2018-01-26T11:01:47.747Z,1.20
2018-01-26T11:04:15.194Z,1.00
2018-01-26T11:06:43.421Z,1.00
2018-01-26T11:09:10.882Z,1.00
2018-01-26T11:11:38.346Z,1.13
2018-01-26T11:14:05.794Z,1.50
2018-01-26T11:16:33.248Z,1.67
2018-01-26T11:19:00.705Z,1.40
2018-01-26T11:21:28.148Z,1.60
2018-01-26T11:23:55.606Z,1.67
2018-01-26T11:26:23.046Z,1.60
2018-01-26T11:28:50.506Z,2.00
2018-01-26T11:31:17.943Z,1.70
2018-01-26T11:33:45.388Z,2.10
2018-01-26T11:36:13.595Z,2.30
2018-01-26T11:38:41.825Z,2.10
2018-01-26T11:41:09.261Z,2.53
2018-01-26T11:43:36.732Z,2.27
2018-01-26T11:46:04.182Z,1.83
2018-01-26T11:48:31.693Z,2.30
2018-01-26T11:50:59.077Z,2.30
2018-01-26T11:53:26.534Z,2.30
2018-01-26T11:55:53.977Z,1.90
2018-01-26T11:58:21.418Z,1.97
2018-01-26T12:00:48.865Z,1.70
2018-01-26T12:03:16.304Z,2.10
2018-01-26T12:05:44.524Z,1.60
2018-01-26T12:08:11.971Z,1.77
2018-01-26T12:10:39.450Z,1.90
2018-01-26T12:13:06.892Z,1.80
2018-01-26T12:15:34.345Z,2.37
2018-01-26T12:18:01.794Z,1.63
2018-01-26T12:20:29.231Z,1.90
2018-01-26T12:22:56.681Z,1.87
2018-01-26T12:25:24.458Z,1.50
2018-01-26T12:27:52.238Z,1.27
2018-01-26T12:30:20.005Z,1.17
2018-01-26T12:32:47.771Z,1.77
2018-01-26T12:35:15.511Z,1.20
2018-01-26T12:37:43.717Z,1.17
2018-01-26T12:40:11.213Z,1.53
2018-01-26T12:42:38.705Z,1.40
2018-01-26T12:45:06.129Z,1.13
2018-01-26T12:47:34.392Z,1.47
2018-01-26T12:50:01.878Z,1.27
2018-01-26T12:52:30.135Z,1.60
2018-01-26T12:54:57.608Z,1.57
2018-01-26T12:57:25.869Z,1.80
2018-01-26T12:59:53.302Z,2.10
2018-01-26T13:02:20.757Z,1.73
2018-01-26T13:04:48.253Z,1.70
2018-01-26T13:07:16.501Z,2.20
2018-01-26T13:09:43.936Z,1.73
2018-01-26T13:12:11.386Z,1.80
2018-01-26T13:14:38.883Z,1.40
2018-01-26T13:17:06.359Z,1.33
2018-01-26T13:19:34.571Z,1.60
2018-01-26T13:22:02.073Z,2.10
2018-01-26T13:24:29.554Z,1.50
2018-01-26T13:26:57.796Z,1.33
2018-01-26T13:29:25.278Z,1.23
2018-01-26T13:31:53.539Z,1.40
2018-01-26T13:34:20.997Z,1.70
2018-01-26T13:36:49.249Z,1.30
2018-01-26T13:39:16.743Z,1.30
2018-01-26T13:41:44.952Z,1.80
2018-01-26T13:44:12.401Z,1.70
2018-01-26T13:46:39.859Z,1.60
2018-01-26T13:49:07.310Z,1.50
2018-01-26T13:51:34.749Z,2.13
2018-01-26T13:54:02.201Z,1.73
2018-01-26T13:56:29.657Z,1.77
2018-01-26T13:58:57.111Z,1.77
2018-01-26T14:01:25.331Z,1.97
2018-01-26T14:03:52.772Z,2.30
2018-01-26T14:06:20.235Z,2.27
2018-01-26T14:08:47.689Z,2.20
2018-01-26T14:11:15.139Z,1.60
2018-01-26T14:13:42.589Z,1.80
2018-01-26T14:16:10.041Z,2.10
2018-01-26T14:18:37.480Z,1.90
2018-01-26T14:21:05.762Z,2.37
2018-01-26T14:23:33.156Z,2.23
2018-01-26T14:26:00.611Z,2.63
2018-01-26T14:28:28.052Z,3.20
2018-01-26T14:30:55.511Z,2.53
2018-01-26T14:33:22.953Z,2.77
2018-01-26T14:35:50.459Z,3.10
2018-01-26T14:38:17.854Z,2.53
2018-01-26T14:40:46.068Z,2.97
2018-01-26T14:43:13.513Z,3.27
2018-01-26T14:45:40.952Z,3.60
2018-01-26T14:48:08.406Z,3.30
2018-01-26T14:50:35.846Z,3.00
2018-01-26T14:53:04.065Z,3.40
2018-01-26T14:55:31.507Z,3.37
2018-01-26T14:57:58.956Z,3.00
2018-01-26T15:00:26.400Z,4.30
2018-01-26T15:02:53.858Z,4.23
2018-01-26T15:05:21.311Z,4.17
2018-01-26T15:07:49.521Z,5.60
2018-01-26T15:10:16.970Z,5.93
2018-01-26T15:12:44.425Z,5.40
2018-01-26T15:15:11.869Z,6.13
2018-01-26T15:17:39.376Z,9.83
2018-01-26T15:20:07.569Z,7.60
2018-01-26T15:22:35.788Z,5.90
2018-01-26T15:25:03.238Z,5.87
2018-01-26T15:27:30.677Z,7.27
2018-01-26T15:29:58.135Z,8.60
2018-01-26T15:32:25.590Z,12.17
2018-01-26T15:34:55.811Z,14.73
2018-01-26T15:37:23.297Z,8.40
2018-01-26T15:39:50.785Z,13.37
2018-01-26T15:42:18.565Z,11.57
2018-01-26T15:44:46.423Z,8.97
2018-01-26T15:47:14.184Z,7.70
2018-01-26T15:49:41.884Z,6.50
2018-01-26T15:52:10.139Z,7.13
2018-01-26T15:54:38.417Z,7.53
2018-01-26T15:57:05.922Z,6.70
2018-01-26T15:59:33.500Z,7.83
2018-01-26T16:02:01.014Z,6.50
2018-01-26T16:04:30.307Z,8.40
2018-01-26T16:06:58.558Z,7.20
2018-01-26T16:09:26.114Z,7.87
2018-01-26T16:11:53.657Z,8.07
2018-01-26T16:14:21.874Z,8.90
2018-01-26T16:16:50.142Z,8.30
2018-01-26T16:19:20.151Z,9.13
2018-01-26T16:21:48.516Z,9.00
2018-01-26T16:24:30.162Z,8.57
2018-01-26T16:26:58.927Z,9.57
2018-01-26T16:29:28.648Z,9.70
2018-01-26T16:31:56.206Z,9.03
2018-01-26T16:34:26.497Z,9.00
2018-01-26T16:36:54.225Z,9.23
2018-01-26T16:39:21.776Z,8.60
2018-01-26T16:41:49.344Z,9.60
2018-01-26T16:44:19.487Z,9.97
2018-01-26T16:46:49.017Z,9.63
2018-01-26T16:49:16.629Z,9.33
2018-01-26T16:51:44.282Z,9.13
2018-01-26T16:54:12.526Z,13.33
2018-01-26T16:56:40.868Z,9.07
2018-01-26T16:59:10.141Z,10.73
2018-01-26T17:01:40.293Z,12.87
2018-01-26T17:04:09.172Z,10.93
2018-01-26T17:06:37.561Z,12.10
2018-01-26T17:12:03.042Z,12.47
2018-01-26T17:14:30.567Z,14.07
2018-01-26T17:16:58.864Z,15.00
2018-01-26T17:19:26.519Z,16.67
2018-01-26T17:21:54.046Z,17.20
2018-01-26T17:24:21.505Z,19.53
2018-01-26T17:26:49.751Z,17.43
2018-01-26T17:29:17.208Z,15.47
2018-01-26T17:31:44.670Z,15.13
2018-01-26T17:34:12.164Z,14.20
2018-01-26T17:36:40.496Z,16.00
2018-01-26T17:39:07.980Z,15.10
2018-01-26T17:41:35.562Z,18.90
2018-01-26T17:44:04.562Z,12.60
2018-01-26T17:46:32.422Z,12.50
2018-01-26T17:49:00.092Z,10.67
2018-01-26T17:51:27.783Z,9.97
2018-01-26T17:53:55.303Z,11.43
2018-01-26T17:56:23.570Z,10.67
2018-01-26T17:58:51.867Z,13.90
2018-01-26T18:01:19.384Z,12.00
2018-01-26T18:03:46.892Z,10.63
2018-01-26T18:06:14.345Z,10.00
2018-01-26T18:08:41.816Z,12.10
2018-01-26T18:11:09.265Z,12.50
2018-01-26T18:13:36.721Z,11.97
2018-01-26T18:16:04.175Z,12.87
2018-01-26T18:18:31.681Z,13.40
2018-01-26T18:20:59.174Z,12.63
2018-01-26T18:23:26.668Z,12.50
2018-01-26T18:25:54.157Z,11.63
2018-01-26T18:28:21.695Z,10.40
2018-01-26T18:30:49.945Z,9.30
2018-01-26T18:33:17.494Z,11.33
2018-01-26T18:35:45.109Z,10.30
2018-01-26T18:38:12.940Z,11.10
2018-01-26T18:40:40.470Z,11.60
2018-01-26T18:43:08.074Z,13.03
2018-01-26T18:45:35.793Z,16.37
2018-01-26T18:48:03.536Z,13.83
2018-01-26T18:50:31.068Z,14.00
2018-01-26T18:52:58.513Z,9.23
2018-01-26T18:55:25.956Z,11.50
2018-01-26T18:57:53.420Z,12.13
2018-01-26T19:00:20.890Z,9.70
2018-01-26T19:02:48.399Z,9.67
2018-01-26T19:05:15.844Z,12.83
2018-01-26T19:07:43.345Z,17.00
2018-01-26T19:10:10.839Z,15.47
2018-01-26T19:12:38.308Z,13.60
2018-01-26T19:15:06.526Z,13.20
2018-01-26T19:17:34.021Z,10.60
2018-01-26T19:20:01.515Z,19.07
2018-01-26T19:22:29.777Z,11.97
2018-01-26T19:24:57.993Z,12.60
2018-01-26T19:27:25.450Z,12.30
2018-01-26T19:29:52.952Z,13.07
2018-01-26T19:32:20.445Z,12.33
2018-01-26T19:34:47.944Z,13.53
2018-01-26T19:37:15.390Z,13.00
2018-01-26T19:39:42.892Z,11.80
2018-01-26T19:42:10.393Z,10.10
2018-01-26T19:44:37.895Z,10.60
2018-01-26T19:47:05.391Z,11.63
2018-01-26T19:49:32.943Z,12.23
2018-01-26T19:52:01.143Z,10.80
2018-01-26T19:54:28.652Z,10.03
2018-01-26T19:56:56.146Z,10.90
2018-01-26T19:59:23.648Z,11.03
2018-01-26T20:01:51.089Z,11.77
2018-01-26T20:07:28.961Z,11.97
2018-01-26T20:09:57.232Z,10.57
2018-01-26T20:12:25.491Z,10.77
2018-01-26T20:14:52.995Z,9.80
2018-01-26T20:17:20.491Z,11.13
2018-01-26T20:19:47.993Z,9.60
2018-01-26T20:22:16.198Z,12.00
2018-01-26T20:24:43.705Z,10.60
2018-01-26T20:27:11.184Z,11.67
2018-01-26T20:29:39.393Z,11.73
2018-01-26T20:32:06.902Z,10.70
2018-01-26T20:34:34.390Z,10.77
2018-01-26T20:37:01.884Z,10.77
2018-01-26T20:39:29.386Z,9.53
2018-01-26T20:41:57.648Z,9.63
2018-01-26T20:44:25.144Z,11.63
2018-01-26T20:46:52.589Z,10.20
2018-01-26T20:49:20.097Z,10.13
2018-01-26T20:51:50.121Z,11.60
2018-01-26T20:54:17.658Z,11.67
2018-01-26T20:56:45.310Z,11.60
2018-01-26T20:59:12.873Z,11.20
2018-01-26T21:01:41.151Z,13.70
2018-01-26T21:04:08.646Z,11.53
2018-01-26T21:06:36.141Z,13.33
2018-01-26T21:09:03.640Z,11.83
2018-01-26T21:11:31.133Z,9.20
2018-01-26T21:13:59.382Z,10.60
2018-01-26T21:16:26.885Z,10.00
2018-01-26T21:18:54.367Z,11.07
2018-01-26T21:21:21.860Z,10.80
2018-01-26T21:23:49.367Z,12.13
2018-01-26T21:26:16.875Z,9.30
2018-01-26T21:28:44.410Z,9.07
2018-01-26T21:31:11.905Z,11.60
2018-01-26T21:33:39.429Z,12.93
2018-01-26T21:36:07.683Z,11.70
2018-01-26T21:38:35.180Z,11.20
2018-01-26T21:41:02.607Z,11.10
2018-01-26T21:43:30.115Z,11.87
2018-01-26T21:45:58.374Z,13.90
2018-01-26T21:48:25.873Z,12.80
2018-01-26T21:50:53.308Z,13.47
2018-01-26T21:53:21.586Z,14.00
2018-01-26T21:55:49.840Z,13.90
2018-01-26T21:58:17.333Z,14.83
2018-01-26T22:00:44.836Z,15.80
2018-01-26T22:03:12.353Z,14.63
2018-01-26T22:05:39.859Z,16.03
2018-01-26T22:08:10.969Z,15.53
2018-01-26T22:10:38.420Z,16.47
2018-01-26T22:13:05.919Z,14.00
2018-01-26T22:15:33.423Z,15.00
2018-01-26T22:18:00.870Z,15.03
2018-01-26T22:20:29.132Z,13.93
2018-01-26T22:22:56.615Z,16.17
2018-01-26T22:25:24.057Z,17.17
2018-01-26T22:27:52.325Z,14.63
2018-01-26T22:30:20.587Z,15.13
2018-01-26T22:32:48.080Z,16.23
2018-01-26T22:35:15.581Z,16.60
2018-01-26T22:37:43.054Z,17.93
2018-01-26T22:40:10.556Z,16.10
2018-01-26T22:42:37.993Z,16.27
2018-01-26T22:45:06.255Z,16.60
2018-01-26T22:47:33.754Z,15.83
2018-01-26T22:50:01.213Z,17.00
2018-01-26T22:52:28.703Z,17.30
2018-01-26T22:54:56.176Z,15.30
2018-01-26T22:57:23.635Z,15.37
2018-01-26T22:59:51.121Z,15.50
2018-01-26T23:02:19.390Z,14.27
2018-01-26T23:04:47.643Z,12.90
2018-01-26T23:07:15.149Z,13.33
2018-01-26T23:09:42.588Z,14.70
2018-01-26T23:12:10.121Z,14.60
2018-01-26T23:14:38.392Z,14.20
2018-01-26T23:17:05.878Z,16.20
2018-01-26T23:19:33.423Z,16.50
2018-01-26T23:22:01.722Z,15.80
2018-01-26T23:24:29.219Z,16.37
2018-01-26T23:26:56.758Z,15.00
2018-01-26T23:29:24.234Z,16.77
2018-01-26T23:31:51.712Z,14.90
2018-01-26T23:34:19.228Z,15.77
2018-01-26T23:36:46.746Z,15.70
2018-01-26T23:39:15.026Z,14.80
2018-01-26T23:41:43.323Z,18.27
2018-01-26T23:44:10.855Z,14.33
2018-01-26T23:46:39.115Z,15.20
2018-01-26T23:49:06.574Z,16.00
2018-01-26T23:51:34.012Z,14.20
2018-01-26T23:54:01.511Z,16.40
2018-01-26T23:56:29.760Z,14.57
2018-01-26T23:58:57.202Z,14.57
